Time;durP1;ratioP1;P1;durP2;ratioP2;P2;SDS_P1;SDS_P2;PMS_P1;PMS_P2;Temp;Humidity;BMP_temperature;BMP_pressure;BME280_temperature;BME280_humidity;BME280_pressure;Samples;Min_cycle;Max_cycle;Signal;HPM_P1;HPM_P2
2023/01/17 00:02:10;;;;;;;0.80;0.60;;;5.70;99.90;;;;;;4941916;29;20188;-73
2023/01/17 00:10:09;;;;;;;1.00;0.67;;;5.70;99.90;;;;;;4925016;29;20332;-72
2023/01/17 00:12:35;;;;;;;0.60;0.60;;;5.70;99.90;;;;;;4935379;29;20205;-73
2023/01/17 00:15:05;;;;;;;1.27;0.70;;;5.70;99.90;;;;;;4932916;29;20189;-73
2023/01/17 00:17:31;;;;;;;2.07;0.70;;;5.70;99.90;;;;;;4927457;29;20277;-72
2023/01/17 01:35:26;;;;;;;1.47;0.50;;;5.60;99.90;;;;;;4939928;29;20172;-73
2023/01/17 01:37:54;;;;;;;1.30;0.50;;;5.50;99.90;;;;;;4938627;29;20244;-73
2023/01/17 01:40:20;;;;;;;0.83;0.40;;;5.50;99.90;;;;;;4927962;29;20182;-74
2023/01/17 01:42:57;;;;;;;1.13;0.57;;;5.60;99.90;;;;;;4920104;29;20188;-73
2023/01/17 01:45:24;;;;;;;1.03;0.70;;;5.60;99.90;;;;;;4922405;29;20224;-73
2023/01/17 01:47:55;;;;;;;0.80;0.70;;;5.40;99.90;;;;;;4939258;29;20287;-72
2023/01/17 01:50:21;;;;;;;0.50;0.50;;;5.40;99.90;;;;;;4943782;29;20209;-73
2023/01/17 01:52:55;;;;;;;1.07;0.70;;;5.40;99.90;;;;;;4938943;29;20189;-72
2023/01/17 01:55:34;;;;;;;1.27;0.60;;;5.30;99.90;;;;;;4937554;29;20181;-72
2023/01/17 01:58:18;;;;;;;1.03;0.80;;;5.30;99.90;;;;;;4949234;29;20299;-73
2023/01/17 02:00:43;;;;;;;1.73;0.70;;;5.30;99.90;;;;;;4928113;29;20174;-73
2023/01/17 02:03:23;;;;;;;0.60;0.60;;;5.30;99.90;;;;;;4940419;29;20206;-73
2023/01/17 02:05:51;;;;;;;0.50;0.50;;;5.20;99.90;;;;;;4938469;29;20192;-73
2023/01/17 02:08:22;;;;;;;0.87;0.60;;;5.20;99.90;;;;;;4937612;29;20213;-73
2023/01/17 02:10:51;;;;;;;0.80;0.70;;;5.20;99.90;;;;;;4954237;29;20215;-73
2023/01/17 02:13:21;;;;;;;1.27;0.80;;;5.10;99.90;;;;;;4940658;29;20225;-74
2023/01/17 02:15:56;;;;;;;1.80;1.00;;;5.10;99.90;;;;;;4938466;29;20204;-72
2023/01/17 02:18:37;;;;;;;2.67;0.90;;;5.00;99.90;;;;;;4938332;29;20184;-72
2023/01/17 02:21:28;;;;;;;2.23;1.10;;;5.00;99.90;;;;;;4927820;29;20209;-72
2023/01/17 02:24:31;;;;;;;1.10;1.00;;;5.00;99.90;;;;;;4938238;29;20217;-73
2023/01/17 02:27:27;;;;;;;2.13;1.07;;;5.00;99.90;;;;;;4935759;29;20216;-72
2023/01/17 02:29:56;;;;;;;2.17;1.03;;;5.00;99.90;;;;;;4931981;29;20192;-73
2023/01/17 02:32:51;;;;;;;1.60;1.00;;;5.00;99.90;;;;;;4938057;29;20234;-72
2023/01/17 02:35:39;;;;;;;2.03;1.03;;;5.00;99.90;;;;;;4931741;29;20236;-73
2023/01/17 02:38:18;;;;;;;1.77;0.97;;;5.00;99.90;;;;;;4937049;29;20323;-73
2023/01/17 02:40:57;;;;;;;2.63;1.17;;;5.00;99.90;;;;;;4937599;29;20216;-72
2023/01/17 02:43:23;;;;;;;1.50;1.00;;;5.00;99.90;;;;;;4937369;29;20197;-73
2023/01/17 02:45:49;;;;;;;1.80;1.10;;;5.00;99.90;;;;;;4937017;29;20193;-73
2023/01/17 02:48:21;;;;;;;1.17;0.90;;;5.00;99.90;;;;;;4937624;29;20303;-73
2023/01/17 02:51:06;;;;;;;2.63;1.10;;;5.00;99.90;;;;;;4943884;29;20181;-73
2023/01/17 02:53:53;;;;;;;1.67;1.00;;;5.00;99.90;;;;;;4937397;29;20329;-73
2023/01/17 02:56:45;;;;;;;2.23;1.10;;;4.90;99.90;;;;;;4937442;29;20251;-72
2023/01/17 02:59:39;;;;;;;1.33;1.10;;;4.90;99.90;;;;;;4937491;29;20184;-74
2023/01/17 03:02:16;;;;;;;2.20;1.00;;;4.90;99.90;;;;;;4937645;29;20193;-73
2023/01/17 03:04:53;;;;;;;2.23;1.20;;;4.90;99.90;;;;;;4919023;29;20165;-74
2023/01/17 03:07:24;;;;;;;1.73;1.10;;;5.00;99.90;;;;;;4919121;29;20233;-73
2023/01/17 03:09:58;;;;;;;3.80;1.23;;;4.90;99.90;;;;;;4937273;29;20244;-73
2023/01/17 03:12:30;;;;;;;1.80;1.00;;;5.00;99.90;;;;;;4931370;29;20339;-73
2023/01/17 03:14:55;;;;;;;2.33;1.20;;;5.00;99.90;;;;;;4933707;29;20175;-73
2023/01/17 03:17:30;;;;;;;2.30;0.90;;;5.00;99.90;;;;;;4935958;29;20191;-72
2023/01/17 03:19:56;;;;;;;1.83;1.10;;;5.00;99.90;;;;;;4936944;29;20256;-73
2023/01/17 03:22:22;;;;;;;2.47;1.10;;;5.00;99.90;;;;;;4937580;29;20224;-73
2023/01/17 03:24:50;;;;;;;2.37;1.17;;;5.10;99.90;;;;;;4934332;29;20217;-73
2023/01/17 03:27:15;;;;;;;3.63;1.03;;;5.00;99.90;;;;;;4927599;29;20201;-74
2023/01/17 03:29:43;;;;;;;1.93;0.90;;;5.00;99.90;;;;;;4935573;29;20186;-73
2023/01/17 03:32:11;;;;;;;2.13;1.00;;;5.00;99.90;;;;;;4934882;29;20216;-73
2023/01/17 03:34:37;;;;;;;2.50;1.30;;;5.10;99.90;;;;;;4940086;29;20273;-72
2023/01/17 03:37:02;;;;;;;2.83;1.00;;;5.00;99.90;;;;;;4935561;29;20252;-72
2023/01/17 03:39:30;;;;;;;2.43;1.10;;;5.00;99.90;;;;;;4936990;29;20260;-72
2023/01/17 03:41:58;;;;;;;2.07;0.97;;;5.00;99.90;;;;;;4937582;29;20185;-73
2023/01/17 03:44:23;;;;;;;1.67;0.90;;;4.90;99.90;;;;;;4947182;29;20213;-73
2023/01/17 03:46:49;;;;;;;2.87;0.93;;;5.00;99.90;;;;;;4936237;29;20209;-73
2023/01/17 03:49:15;;;;;;;3.00;1.10;;;5.00;99.90;;;;;;4936485;29;20260;-73
2023/01/17 03:51:41;;;;;;;2.70;1.10;;;5.00;99.90;;;;;;4937470;29;20205;-73
2023/01/17 03:54:09;;;;;;;7.00;1.30;;;5.10;99.90;;;;;;4936377;29;20185;-73
2023/01/17 03:56:34;;;;;;;3.90;1.33;;;5.00;99.90;;;;;;4923526;29;20443;-72
2023/01/17 03:59:00;;;;;;;2.73;1.30;;;5.00;99.90;;;;;;4921898;29;20189;-73
2023/01/17 04:01:25;;;;;;;2.13;1.30;;;5.00;99.90;;;;;;4934781;29;20197;-72
2023/01/17 04:03:51;;;;;;;2.00;1.50;;;5.00;99.90;;;;;;4936652;29;20224;-73
2023/01/17 04:06:17;;;;;;;2.07;1.30;;;5.00;99.90;;;;;;4928870;29;20185;-74
2023/01/17 04:08:42;;;;;;;3.30;1.23;;;5.00;99.90;;;;;;4936462;29;20205;-73
2023/01/17 04:11:10;;;;;;;1.93;1.47;;;5.00;99.90;;;;;;4936435;29;20208;-73
2023/01/17 04:13:36;;;;;;;1.80;1.17;;;5.00;99.90;;;;;;4936688;29;20316;-72
2023/01/17 04:16:03;;;;;;;2.47;1.40;;;5.00;99.90;;;;;;4933291;29;20229;-72
2023/01/17 04:18:29;;;;;;;1.40;1.07;;;5.00;99.90;;;;;;4936366;29;20177;-73
2023/01/17 04:20:55;;;;;;;1.47;1.10;;;5.10;99.90;;;;;;4947498;29;20191;-73
2023/01/17 04:23:20;;;;;;;1.57;1.07;;;5.00;99.90;;;;;;4947103;29;20201;-73
2023/01/17 04:25:46;;;;;;;3.53;1.10;;;5.00;99.90;;;;;;4937180;29;20212;-74
2023/01/17 04:28:12;;;;;;;2.40;1.20;;;5.10;99.90;;;;;;4946965;29;20215;-73
2023/01/17 04:30:37;;;;;;;2.77;1.10;;;5.00;99.90;;;;;;4936328;29;20221;-73
2023/01/17 04:33:03;;;;;;;4.43;1.50;;;5.00;99.90;;;;;;4936465;29;20276;-73
2023/01/17 04:35:32;;;;;;;3.27;1.27;;;5.00;99.90;;;;;;4939139;29;20295;-73
2023/01/17 04:37:58;;;;;;;3.00;1.00;;;4.90;99.90;;;;;;4937905;29;20173;-73
2023/01/17 04:40:28;;;;;;;3.50;1.37;;;5.00;99.90;;;;;;4935829;29;20248;-73
2023/01/17 04:42:57;;;;;;;2.27;1.43;;;4.90;99.90;;;;;;4936212;29;20189;-73
2023/01/17 04:45:22;;;;;;;2.13;1.20;;;4.90;99.90;;;;;;4932415;29;20192;-72
2023/01/17 04:47:48;;;;;;;3.17;1.30;;;4.80;99.90;;;;;;4920290;29;20213;-73
2023/01/17 04:50:16;;;;;;;1.50;1.40;;;4.80;99.90;;;;;;4935813;29;20298;-73
2023/01/17 04:52:42;;;;;;;1.90;1.37;;;4.80;99.90;;;;;;4935586;29;20178;-73
2023/01/17 04:55:07;;;;;;;1.63;1.10;;;4.80;99.90;;;;;;4931469;29;20238;-74
2023/01/17 04:57:36;;;;;;;2.07;1.50;;;4.80;99.90;;;;;;4929853;29;20196;-73
2023/01/17 05:00:02;;;;;;;1.50;1.27;;;4.70;99.90;;;;;;4935666;29;20178;-73
2023/01/17 05:02:28;;;;;;;3.07;1.40;;;4.70;99.90;;;;;;4936053;29;20212;-73
2023/01/17 05:04:53;;;;;;;2.57;1.50;;;4.70;99.90;;;;;;4936258;29;20189;-72
2023/01/17 05:07:19;;;;;;;2.37;1.40;;;4.70;99.90;;;;;;4926279;29;20225;-72
2023/01/17 05:09:45;;;;;;;4.23;1.60;;;4.60;99.90;;;;;;4936122;29;20182;-72
2023/01/17 05:12:15;;;;;;;3.97;1.60;;;4.60;99.90;;;;;;4936028;29;20185;-72
2023/01/17 05:14:41;;;;;;;2.97;1.90;;;4.60;99.90;;;;;;4932208;29;20209;-73
2023/01/17 05:17:10;;;;;;;3.13;1.80;;;4.60;99.90;;;;;;4923387;29;20240;-73
2023/01/17 05:19:35;;;;;;;2.00;1.40;;;4.60;99.90;;;;;;4938771;29;20233;-72
2023/01/17 05:22:02;;;;;;;2.80;1.90;;;4.60;99.90;;;;;;4936106;29;20181;-72
2023/01/17 05:24:31;;;;;;;1.90;1.50;;;4.60;99.90;;;;;;4930981;29;20281;-73
2023/01/17 05:27:01;;;;;;;3.23;1.50;;;4.50;99.90;;;;;;4939159;29;20228;-73
2023/01/17 05:29:28;;;;;;;5.00;1.80;;;4.50;99.90;;;;;;4938117;29;20350;-71
2023/01/17 05:31:53;;;;;;;2.37;1.60;;;4.50;99.90;;;;;;4933066;29;20196;-71
2023/01/17 05:34:19;;;;;;;3.43;1.53;;;4.40;99.90;;;;;;4939107;29;20185;-73
2023/01/17 05:36:45;;;;;;;2.50;1.40;;;4.40;99.90;;;;;;4928214;29;20182;-74
2023/01/17 05:39:10;;;;;;;1.43;1.30;;;4.40;99.90;;;;;;4939162;29;20197;-73
2023/01/17 05:41:36;;;;;;;1.77;1.40;;;4.40;99.90;;;;;;4935634;29;20186;-73
2023/01/17 05:44:01;;;;;;;3.17;1.67;;;4.30;99.90;;;;;;4927285;29;20201;-72
2023/01/17 05:46:29;;;;;;;2.00;1.53;;;4.30;99.90;;;;;;4938647;29;20284;-73
2023/01/17 05:48:57;;;;;;;2.57;1.50;;;4.30;99.90;;;;;;4938519;29;20196;-73
2023/01/17 05:51:25;;;;;;;1.50;1.40;;;4.20;99.90;;;;;;4938815;29;20205;-73
2023/01/17 05:53:51;;;;;;;2.23;1.57;;;4.20;99.90;;;;;;4938529;29;20268;-74
2023/01/17 05:56:16;;;;;;;1.93;1.60;;;4.20;99.90;;;;;;4938320;29;20317;-74
2023/01/17 05:58:42;;;;;;;2.07;1.43;;;4.10;99.90;;;;;;4938579;29;20216;-73
2023/01/17 06:01:08;;;;;;;2.73;1.33;;;4.10;99.90;;;;;;4938453;29;20190;-74
2023/01/17 06:03:34;;;;;;;2.20;1.50;;;4.10;99.90;;;;;;4938663;29;20177;-74
2023/01/17 06:06:02;;;;;;;2.40;1.60;;;4.10;99.90;;;;;;4938281;29;20213;-74
2023/01/17 06:08:30;;;;;;;1.77;1.60;;;4.10;99.90;;;;;;4938469;29;20208;-73
2023/01/17 06:10:58;;;;;;;2.50;1.40;;;4.10;99.90;;;;;;4938180;29;20173;-74
2023/01/17 06:13:24;;;;;;;1.70;1.23;;;4.10;99.90;;;;;;4938350;29;20184;-73
2023/01/17 06:15:51;;;;;;;1.63;1.50;;;4.10;99.90;;;;;;4923186;29;20265;-75
2023/01/17 06:18:20;;;;;;;1.90;1.47;;;4.10;99.90;;;;;;4938093;29;20276;-73
2023/01/17 06:20:51;;;;;;;2.00;1.43;;;4.10;99.90;;;;;;4937876;29;20177;-72
2023/01/17 06:23:17;;;;;;;2.70;1.70;;;4.20;99.90;;;;;;4938419;29;20177;-72
2023/01/17 06:25:44;;;;;;;1.97;1.37;;;4.20;99.90;;;;;;4926513;29;20216;-72
2023/01/17 06:28:13;;;;;;;1.50;1.30;;;4.20;99.90;;;;;;4919138;29;20212;-72
2023/01/17 06:30:39;;;;;;;2.37;1.50;;;4.20;99.90;;;;;;4927046;29;20270;-73
2023/01/17 06:33:05;;;;;;;1.57;1.40;;;4.20;99.90;;;;;;4925152;29;20228;-73
2023/01/17 06:35:31;;;;;;;2.00;1.77;;;4.20;99.90;;;;;;4937848;29;20177;-72
2023/01/17 06:37:58;;;;;;;1.97;1.77;;;4.20;99.90;;;;;;4937249;29;20189;-72
2023/01/17 06:40:30;;;;;;;2.53;2.07;;;4.20;99.90;;;;;;4937726;29;20177;-72
2023/01/17 06:43:00;;;;;;;2.07;1.83;;;4.20;99.90;;;;;;4934367;29;20201;-73
2023/01/17 06:45:29;;;;;;;1.50;1.40;;;4.20;99.90;;;;;;4937324;29;20275;-73
2023/01/17 06:47:55;;;;;;;1.50;1.40;;;4.20;99.90;;;;;;4937231;29;20212;-73
2023/01/17 06:50:21;;;;;;;2.57;1.60;;;4.10;99.90;;;;;;4936960;29;20200;-73
2023/01/17 06:53:01;;;;;;;1.90;1.30;;;4.10;99.90;;;;;;4918462;29;20174;-74
2023/01/17 06:55:28;;;;;;;1.80;1.60;;;4.10;99.90;;;;;;4926332;29;20173;-72
2023/01/17 06:57:55;;;;;;;2.30;1.70;;;4.10;99.90;;;;;;4937221;29;20174;-73
2023/01/17 07:00:23;;;;;;;3.23;2.00;;;4.10;99.90;;;;;;4928407;29;20228;-73
2023/01/17 07:02:52;;;;;;;2.27;1.67;;;4.10;99.90;;;;;;4918233;29;20202;-72
2023/01/17 07:05:18;;;;;;;1.93;1.70;;;4.10;99.90;;;;;;4933909;29;20213;-73
2023/01/17 07:07:46;;;;;;;1.80;1.50;;;4.20;99.90;;;;;;4937015;29;20224;-73
2023/01/17 07:10:15;;;;;;;2.50;1.90;;;4.30;99.90;;;;;;4937372;29;20204;-73
2023/01/17 07:12:41;;;;;;;2.40;1.90;;;4.10;99.90;;;;;;4937264;29;20181;-74
2023/01/17 07:15:07;;;;;;;2.60;1.90;;;4.10;99.90;;;;;;4931269;29;20192;-74
2023/01/17 07:17:36;;;;;;;1.80;1.60;;;4.20;99.90;;;;;;4936918;29;20225;-73
2023/01/17 07:20:04;;;;;;;2.33;1.83;;;4.20;99.90;;;;;;4937230;29;20170;-73
2023/01/17 07:22:32;;;;;;;2.73;2.00;;;4.20;99.90;;;;;;4928006;29;20178;-73
2023/01/17 07:25:00;;;;;;;2.53;1.90;;;4.40;99.90;;;;;;4936992;29;20418;-74
2023/01/17 07:27:26;;;;;;;2.10;1.73;;;4.20;99.90;;;;;;4933310;29;20213;-73
2023/01/17 07:29:52;;;;;;;2.10;1.90;;;4.20;99.90;;;;;;4929107;29;20197;-73
2023/01/17 07:32:20;;;;;;;2.47;2.03;;;4.20;99.90;;;;;;4930565;29;20225;-73
2023/01/17 07:34:50;;;;;;;2.83;2.20;;;4.20;99.90;;;;;;4934898;29;20173;-73
2023/01/17 07:37:18;;;;;;;2.77;2.10;;;4.20;99.90;;;;;;4936473;29;20276;-73
2023/01/17 07:39:44;;;;;;;3.00;2.17;;;4.10;99.90;;;;;;4936864;29;20420;-73
2023/01/17 07:42:10;;;;;;;2.77;2.30;;;4.10;99.90;;;;;;4928391;29;20243;-73
2023/01/17 07:44:36;;;;;;;2.37;2.03;;;4.10;99.90;;;;;;4930891;29;20185;-73
2023/01/17 07:47:03;;;;;;;3.07;2.33;;;4.00;99.90;;;;;;4936673;29;20235;-73
2023/01/17 07:49:30;;;;;;;4.63;2.53;;;4.00;99.90;;;;;;4936646;29;20205;-73
2023/01/17 07:51:56;;;;;;;3.30;2.60;;;4.00;99.90;;;;;;4933286;29;20177;-73
2023/01/17 07:54:21;;;;;;;4.37;2.50;;;3.90;99.90;;;;;;4917841;29;20178;-73
2023/01/17 07:56:47;;;;;;;4.67;2.97;;;3.90;99.90;;;;;;4928925;29;20228;-73
2023/01/17 08:00:04;;;;;;;3.60;2.80;;;3.90;99.90;;;;;;4936555;29;20245;-73
2023/01/17 08:02:29;;;;;;;3.33;2.20;;;3.90;99.90;;;;;;4906877;29;20194;-74
2023/01/17 08:04:56;;;;;;;3.13;2.40;;;3.80;99.90;;;;;;4933245;29;20225;-73
2023/01/17 08:07:26;;;;;;;2.37;2.00;;;3.80;99.90;;;;;;4917586;29;20221;-73
2023/01/17 08:09:53;;;;;;;2.33;2.13;;;3.80;99.90;;;;;;4933301;29;20178;-73
2023/01/17 08:12:19;;;;;;;2.97;2.10;;;3.80;99.90;;;;;;4928147;29;20201;-73
2023/01/17 08:14:44;;;;;;;2.67;2.13;;;3.80;99.90;;;;;;4936188;29;20216;-73
2023/01/17 08:17:17;;;;;;;2.37;2.17;;;3.80;99.90;;;;;;4936250;29;20427;-72
2023/01/17 08:19:43;;;;;;;2.77;2.00;;;3.80;99.90;;;;;;4935076;29;20188;-73
2023/01/17 08:22:12;;;;;;;3.30;2.00;;;3.80;99.90;;;;;;4921693;29;20208;-73
2023/01/17 08:24:43;;;;;;;2.37;2.03;;;3.80;99.90;;;;;;4924827;29;20178;-73
2023/01/17 08:27:09;;;;;;;2.47;1.77;;;3.80;99.90;;;;;;4925113;29;20231;-72
2023/01/17 08:29:40;;;;;;;2.40;1.90;;;3.90;99.90;;;;;;4935931;29;20276;-73
2023/01/17 08:32:06;;;;;;;2.57;1.70;;;3.80;99.90;;;;;;4923162;29;20468;-73
2023/01/17 08:34:32;;;;;;;2.33;1.90;;;3.90;99.90;;;;;;4935656;29;20184;-72
2023/01/17 08:36:58;;;;;;;2.07;1.73;;;3.90;99.90;;;;;;4917446;29;20229;-73
2023/01/17 08:39:26;;;;;;;2.47;1.93;;;4.00;99.90;;;;;;4926472;29;20185;-73
2023/01/17 08:41:56;;;;;;;5.40;2.07;;;4.00;99.90;;;;;;4936130;29;20185;-72
2023/01/17 08:44:23;;;;;;;1.70;1.60;;;4.10;99.90;;;;;;4929845;29;20181;-74
2023/01/17 08:46:54;;;;;;;3.70;1.87;;;4.10;99.90;;;;;;4936137;29;20459;-73
2023/01/17 08:49:19;;;;;;;2.60;1.87;;;4.20;99.90;;;;;;4936138;29;20200;-74
2023/01/17 08:51:47;;;;;;;2.67;2.03;;;4.30;99.90;;;;;;4936233;29;20208;-73
2023/01/17 08:54:14;;;;;;;2.67;2.10;;;4.50;99.90;;;;;;4939572;29;20205;-72
2023/01/17 08:56:41;;;;;;;2.83;1.80;;;4.40;99.90;;;;;;4939849;29;20181;-73
2023/01/17 08:59:10;;;;;;;2.80;1.70;;;4.50;99.90;;;;;;4934212;29;20178;-73
2023/01/17 09:01:39;;;;;;;2.57;2.10;;;4.50;99.90;;;;;;4920309;29;20221;-73
2023/01/17 09:04:08;;;;;;;1.87;1.77;;;4.60;99.90;;;;;;4925455;29;20192;-74
2023/01/17 09:06:41;;;;;;;2.30;1.90;;;4.70;99.90;;;;;;4939765;29;20223;-72
2023/01/17 09:09:09;;;;;;;2.30;2.00;;;4.80;99.90;;;;;;4920351;29;20206;-73
2023/01/17 09:11:35;;;;;;;2.27;2.00;;;4.70;99.90;;;;;;4920605;29;20218;-73
2023/01/17 09:14:01;;;;;;;1.87;1.63;;;4.90;99.90;;;;;;4920347;29;20209;-73
2023/01/17 09:16:27;;;;;;;2.20;1.77;;;4.90;99.90;;;;;;4920095;29;20180;-73
2023/01/17 09:18:54;;;;;;;2.00;1.73;;;4.90;99.90;;;;;;4932876;29;20260;-72
2023/01/17 09:21:23;;;;;;;1.97;1.73;;;4.90;99.90;;;;;;4939451;29;20174;-73
2023/01/17 09:23:49;;;;;;;2.10;1.90;;;5.00;99.90;;;;;;4938855;29;20188;-74
2023/01/17 09:26:19;;;;;;;2.00;1.80;;;4.90;99.90;;;;;;4939111;29;20181;-73
2023/01/17 09:28:44;;;;;;;2.73;2.03;;;5.00;99.90;;;;;;4939508;29;20185;-73
2023/01/17 09:31:10;;;;;;;1.70;1.57;;;4.90;99.90;;;;;;4938893;29;20235;-73
2023/01/17 09:33:40;;;;;;;2.63;2.10;;;5.10;99.90;;;;;;4938750;29;20292;-73
2023/01/17 09:36:06;;;;;;;2.43;1.90;;;5.00;99.90;;;;;;4955707;29;20204;-72
2023/01/17 09:38:32;;;;;;;2.93;2.10;;;5.00;99.90;;;;;;4938972;29;20215;-72
2023/01/17 09:40:57;;;;;;;5.10;2.03;;;5.00;99.90;;;;;;4935379;29;20205;-72
2023/01/17 09:43:47;;;;;;;2.30;2.00;;;5.30;99.90;;;;;;4953674;29;20180;-75
2023/01/17 09:46:21;;;;;;;2.20;1.80;;;5.40;99.90;;;;;;4945976;29;20182;-73
2023/01/17 09:48:52;;;;;;;2.60;1.90;;;5.60;99.90;;;;;;4938898;29;20205;-73
2023/01/17 09:51:23;;;;;;;3.13;1.83;;;5.70;99.90;;;;;;4934197;29;20285;-72
2023/01/17 09:53:52;;;;;;;3.23;1.83;;;5.70;99.90;;;;;;4920000;29;20186;-73
2023/01/17 09:56:30;;;;;;;2.10;1.73;;;5.60;99.90;;;;;;4938580;29;20201;-73
2023/01/17 09:59:08;;;;;;;2.20;2.00;;;5.60;99.90;;;;;;4937946;29;20260;-74
2023/01/17 10:01:51;;;;;;;2.77;2.10;;;5.50;99.90;;;;;;4938388;29;20185;-74
2023/01/17 10:04:40;;;;;;;2.83;2.00;;;5.50;99.90;;;;;;4937467;29;20201;-73
2023/01/17 10:07:27;;;;;;;3.47;2.27;;;5.50;99.90;;;;;;4934922;29;20206;-74
2023/01/17 10:09:55;;;;;;;3.10;2.13;;;5.50;99.90;;;;;;4932854;29;20178;-73
2023/01/17 10:12:45;;;;;;;2.10;1.90;;;5.70;99.90;;;;;;4920811;29;20194;-72
2023/01/17 10:15:33;;;;;;;2.17;1.77;;;5.70;99.90;;;;;;4923472;29;20249;-72
2023/01/17 10:18:17;;;;;;;2.57;2.00;;;5.80;99.90;;;;;;4938374;29;20191;-74
2023/01/17 10:21:03;;;;;;;1.87;1.70;;;5.80;99.90;;;;;;4937577;29;20284;-73
2023/01/17 10:23:50;;;;;;;2.90;2.30;;;6.00;99.90;;;;;;4936045;29;20161;-73
2023/01/17 10:26:24;;;;;;;2.10;1.90;;;6.20;99.90;;;;;;4935805;29;20186;-72
2023/01/17 10:28:52;;;;;;;2.90;2.10;;;6.40;99.90;;;;;;4937774;29;20205;-73
2023/01/17 10:31:30;;;;;;;2.70;2.23;;;6.60;99.90;;;;;;4938086;29;20188;-74
2023/01/17 10:34:04;;;;;;;2.53;1.90;;;6.70;99.90;;;;;;4938189;29;20468;-72
2023/01/17 10:36:40;;;;;;;2.37;2.10;;;6.90;99.90;;;;;;4919368;29;20206;-72
2023/01/17 10:39:23;;;;;;;2.40;2.00;;;7.10;99.90;;;;;;4938086;29;20161;-74
2023/01/17 10:42:15;;;;;;;2.57;2.10;;;7.20;99.90;;;;;;4924017;29;20216;-73
2023/01/17 10:45:02;;;;;;;2.63;1.80;;;7.40;99.90;;;;;;4919271;29;20273;-74
2023/01/17 10:47:31;;;;;;;1.77;1.63;;;7.70;99.90;;;;;;4918743;29;20204;-73
2023/01/17 10:50:01;;;;;;;3.33;2.00;;;7.90;99.90;;;;;;4927346;29;20182;-73
2023/01/17 10:53:09;;;;;;;2.13;1.87;;;8.10;99.90;;;;;;4937555;29;20209;-73
2023/01/17 10:55:37;;;;;;;2.63;1.90;;;8.10;99.90;;;;;;4898517;29;20193;-73
2023/01/17 10:58:07;;;;;;;2.40;1.97;;;8.10;99.90;;;;;;4937670;29;20387;-73
2023/01/17 11:00:44;;;;;;;2.80;2.20;;;8.20;99.90;;;;;;4937219;29;20236;-73
2023/01/17 11:03:12;;;;;;;2.47;2.20;;;8.30;99.90;;;;;;4937379;29;20200;-74
2023/01/17 11:05:41;;;;;;;3.20;2.17;;;8.40;99.90;;;;;;4937445;29;20253;-73
2023/01/17 11:08:09;;;;;;;2.13;1.80;;;8.50;99.90;;;;;;4936834;29;20449;-73
2023/01/17 11:10:38;;;;;;;2.37;2.10;;;8.50;99.90;;;;;;4937600;29;20173;-73
2023/01/17 11:13:23;;;;;;;4.50;2.20;;;8.70;99.90;;;;;;4926732;29;20173;-73
2023/01/17 11:15:56;;;;;;;3.50;2.40;;;8.80;99.90;;;;;;4918508;29;20269;-74
2023/01/17 11:18:30;;;;;;;3.53;2.70;;;8.90;99.90;;;;;;4937107;29;20186;-72
2023/01/17 11:21:12;;;;;;;2.67;2.13;;;9.10;99.90;;;;;;4932611;29;20265;-72
2023/01/17 11:23:44;;;;;;;2.93;2.20;;;9.20;99.90;;;;;;4936754;29;20208;-72
2023/01/17 11:26:33;;;;;;;2.60;2.03;;;9.30;99.90;;;;;;4936522;29;20219;-72
2023/01/17 11:29:30;;;;;;;2.73;2.10;;;9.50;99.90;;;;;;4928673;29;20403;-72
2023/01/17 11:31:55;;;;;;;2.83;2.00;;;9.60;99.90;;;;;;4917706;29;20236;-72
2023/01/17 11:34:24;;;;;;;2.50;2.03;;;9.70;99.90;;;;;;4918040;29;20262;-73
2023/01/17 11:37:13;;;;;;;3.33;2.10;;;9.80;99.90;;;;;;4930770;29;20281;-73
2023/01/17 11:39:39;;;;;;;2.40;2.03;;;9.90;99.90;;;;;;4936635;29;20280;-73
2023/01/17 11:42:25;;;;;;;3.17;2.20;;;9.90;99.90;;;;;;4936871;29;20276;-74
2023/01/17 11:44:53;;;;;;;2.70;1.88;;;10.10;99.90;;;;;;4936606;29;20205;-74
2023/01/17 11:47:19;;;;;;;2.72;2.10;;;10.20;99.90;;;;;;4924097;29;20201;-73
2023/01/17 11:49:52;;;;;;;2.72;2.22;;;10.30;99.90;;;;;;4936545;29;20180;-74
2023/01/17 11:52:24;;;;;;;2.30;2.10;;;10.40;99.90;;;;;;4936650;29;20181;-74
2023/01/17 11:54:52;;;;;;;3.38;1.98;;;10.50;99.90;;;;;;4936781;29;20227;-74
2023/01/17 11:57:26;;;;;;;3.55;2.00;;;10.50;99.90;;;;;;4936406;29;20188;-74
2023/01/17 12:00:11;;;;;;;4.32;2.03;;;10.60;99.90;;;;;;4936662;29;20185;-74
2023/01/17 12:02:46;;;;;;;7.05;2.25;;;10.80;99.90;;;;;;4933245;29;20182;-74
2023/01/17 12:05:31;;;;;;;3.22;2.17;;;11.00;99.90;;;;;;4931070;29;20185;-74
2023/01/17 12:08:03;;;;;;;3.55;2.10;;;11.20;99.90;;;;;;4930310;29;20212;-74
2023/01/17 12:10:40;;;;;;;3.40;1.77;;;11.30;99.90;;;;;;4930450;29;20169;-73
2023/01/17 12:16:41;;;;;;;2.45;1.80;;;11.70;99.90;;;;;;4936803;29;20181;-74
2023/01/17 12:19:25;;;;;;;1.90;1.42;;;12.10;99.90;;;;;;4917511;29;20285;-74
2023/01/17 12:22:16;;;;;;;2.97;1.73;;;12.40;99.90;;;;;;4920714;29;20426;-73
2023/01/17 12:24:54;;;;;;;3.33;1.52;;;12.50;99.90;;;;;;4932991;29;20163;-74
2023/01/17 12:27:33;;;;;;;3.20;1.42;;;12.50;99.90;;;;;;4933554;29;20272;-74
2023/01/17 12:30:23;;;;;;;1.88;1.20;;;12.20;99.90;;;;;;4940190;29;20197;-74
2023/01/17 12:33:19;;;;;;;2.58;1.10;;;11.80;99.90;;;;;;4921339;29;20225;-73
2023/01/17 12:35:52;;;;;;;1.70;1.10;;;11.40;99.90;;;;;;4921230;29;20194;-73
2023/01/17 12:38:39;;;;;;;2.00;1.30;;;10.90;99.90;;;;;;4950706;29;20185;-73
2023/01/17 12:41:09;;;;;;;2.23;1.20;;;10.60;99.90;;;;;;4936540;29;20182;-73
2023/01/17 12:43:46;;;;;;;2.30;1.60;;;10.00;99.90;;;;;;4938600;29;20292;-73
2023/01/17 12:46:23;;;;;;;2.03;1.40;;;9.70;99.90;;;;;;4939648;29;20185;-73
2023/01/17 12:49:01;;;;;;;1.90;1.60;;;9.50;99.90;;;;;;4939574;29;20205;-73
2023/01/17 12:51:32;;;;;;;2.23;1.40;;;9.50;99.90;;;;;;4920826;29;20198;-73
2023/01/17 12:54:26;;;;;;;1.43;1.23;;;9.40;99.90;;;;;;4939925;29;20280;-73
2023/01/17 12:57:00;;;;;;;2.07;1.43;;;9.50;99.90;;;;;;4927150;29;20196;-73
2023/01/17 12:59:36;;;;;;;1.87;1.30;;;9.60;99.90;;;;;;4931245;29;20197;-73
2023/01/17 13:02:34;;;;;;;2.13;1.03;;;9.70;99.90;;;;;;4940043;29;20195;-73
2023/01/17 13:05:16;;;;;;;1.97;1.50;;;9.60;99.90;;;;;;4929287;29;20197;-73
2023/01/17 13:07:50;;;;;;;1.40;0.93;;;9.50;99.90;;;;;;4939399;29;20205;-73
2023/01/17 13:10:34;;;;;;;2.03;1.37;;;9.30;99.90;;;;;;4939283;29;20228;-73
2023/01/17 13:13:15;;;;;;;0.73;0.73;;;9.10;99.90;;;;;;4939673;29;20243;-73
2023/01/17 13:15:41;;;;;;;1.27;0.80;;;8.90;99.90;;;;;;4939282;29;20173;-73
2023/01/17 13:18:21;;;;;;;1.43;0.90;;;8.90;99.90;;;;;;4939453;29;20185;-73
2023/01/17 13:21:03;;;;;;;1.50;0.93;;;8.80;99.90;;;;;;4939167;29;20173;-73
2023/01/17 13:23:45;;;;;;;1.20;0.90;;;8.80;99.90;;;;;;4939314;29;20177;-73
2023/01/17 13:26:38;;;;;;;1.60;0.80;;;8.70;99.90;;;;;;4939398;29;20181;-73
2023/01/17 13:29:23;;;;;;;1.83;1.00;;;8.50;99.90;;;;;;4938754;29;20241;-73
2023/01/17 13:32:26;;;;;;;1.63;0.97;;;8.40;99.90;;;;;;4938879;29;20216;-74
2023/01/17 13:35:16;;;;;;;2.27;1.20;;;8.50;99.90;;;;;;4927096;29;20185;-73
2023/01/17 13:38:03;;;;;;;1.00;0.83;;;8.60;99.90;;;;;;4939513;29;20188;-73
2023/01/17 13:40:41;;;;;;;2.20;1.23;;;8.70;99.90;;;;;;4921569;29;20206;-78
2023/01/17 13:43:34;;;;;;;2.33;1.20;;;8.90;99.90;;;;;;4924574;29;20272;-77
2023/01/17 13:46:02;;;;;;;2.23;1.00;;;9.00;99.90;;;;;;4936587;29;20181;-75
2023/01/17 13:48:29;;;;;;;1.57;1.00;;;9.10;99.90;;;;;;4938452;29;20288;-75
2023/01/17 13:50:56;;;;;;;1.60;1.00;;;9.30;99.90;;;;;;4938779;29;20275;-73
2023/01/17 13:53:45;;;;;;;3.37;1.23;;;9.40;99.90;;;;;;4935029;29;20186;-76
2023/01/17 13:56:24;;;;;;;2.07;1.20;;;9.50;99.90;;;;;;4932645;29;20205;-74
2023/01/17 13:58:53;;;;;;;1.87;0.93;;;9.50;99.90;;;;;;4938726;29;20177;-74
2023/01/17 14:01:41;;;;;;;1.43;1.00;;;9.50;99.90;;;;;;4938645;29;20272;-75
2023/01/17 14:04:11;;;;;;;1.77;1.00;;;9.50;99.90;;;;;;4926416;29;20217;-74
2023/01/17 14:06:54;;;;;;;1.60;0.90;;;9.40;99.90;;;;;;4937958;29;20204;-74
2023/01/17 14:09:28;;;;;;;1.90;1.10;;;9.30;99.90;;;;;;4938171;29;20166;-75
2023/01/17 14:12:05;;;;;;;2.83;1.10;;;9.30;99.90;;;;;;4938432;29;20197;-75
2023/01/17 14:14:35;;;;;;;1.43;1.00;;;9.20;99.90;;;;;;4938404;29;20185;-74
2023/01/17 14:17:21;;;;;;;2.87;1.00;;;9.20;99.90;;;;;;4938645;29;20209;-73
2023/01/17 14:20:08;;;;;;;1.87;0.83;;;9.10;99.90;;;;;;4938195;29;20181;-77
2023/01/17 14:23:01;;;;;;;1.87;1.00;;;9.10;99.90;;;;;;4934938;29;20260;-77
2023/01/17 14:25:28;;;;;;;1.97;1.13;;;9.00;99.90;;;;;;4935371;29;20185;-77
2023/01/17 14:28:03;;;;;;;1.33;0.90;;;8.90;99.90;;;;;;4930157;29;20202;-73
2023/01/17 14:30:35;;;;;;;1.70;0.83;;;8.80;99.90;;;;;;4919182;29;20189;-71
2023/01/17 14:33:03;;;;;;;2.93;1.20;;;8.70;99.90;;;;;;4926150;29;20372;-73
2023/01/17 14:35:39;;;;;;;1.60;0.80;;;8.60;99.90;;;;;;4932767;29;20181;-75
2023/01/17 14:38:23;;;;;;;1.63;1.00;;;8.50;99.90;;;;;;4937962;29;20201;-76
2023/01/17 14:40:56;;;;;;;1.53;0.80;;;8.50;99.90;;;;;;4925815;29;20181;-78
2023/01/17 14:43:26;;;;;;;1.63;0.97;;;8.40;99.90;;;;;;4937750;29;20185;-75
2023/01/17 14:45:57;;;;;;;2.27;1.00;;;8.40;99.90;;;;;;4921365;29;20196;-78
2023/01/17 14:48:23;;;;;;;1.17;0.80;;;8.30;99.90;;;;;;4933700;29;20304;-78